Time;durP1;ratioP1;P1;durP2;ratioP2;P2;SDS_P1;SDS_P2;PMS_P1;PMS_P2;Temp;Humidity;BMP_temperature;BMP_pressure;BME280_temperature;BME280_humidity;BME280_pressure;Samples;Min_cycle;Max_cycle;Signal;HPM_P1;HPM_P2
2022/06/24 00:00:00;;;;;;;;;36.33;34.33;;;;;23.95;53.24;100923.44;110287;1264;18256;-49
2022/06/24 00:02:27;;;;;;;;;30.33;30.00;;;;;23.91;53.15;100915.15;110283;1264;18847;-51
2022/06/24 00:04:54;;;;;;;;;35.00;31.67;;;;;23.90;53.22;100917.33;110237;1265;18731;-47
2022/06/24 00:07:22;;;;;;;;;30.67;30.67;;;;;23.88;53.20;100917.17;110261;1264;18276;-50
2022/06/24 00:09:49;;;;;;;;;35.00;31.33;;;;;23.92;53.10;100916.04;110169;1265;18768;-48
2022/06/24 00:12:16;;;;;;;;;31.67;30.67;;;;;23.93;53.01;100913.45;110273;1265;18669;-48
2022/06/24 00:14:45;;;;;;;;;34.00;32.00;;;;;23.96;52.99;100911.41;110318;1265;18347;-48
2022/06/24 00:17:12;;;;;;;;;33.00;30.00;;;;;24.02;52.83;100912.95;110278;1265;18871;-48
2022/06/24 00:19:39;;;;;;;;;32.33;31.67;;;;;23.97;52.96;100912.98;110282;1264;22008;-47
2022/06/24 00:22:07;;;;;;;;;33.00;31.33;;;;;23.91;53.01;100912.12;110234;1264;18201;-49
2022/06/24 00:24:34;;;;;;;;;39.00;36.00;;;;;23.88;53.32;100911.44;110254;1265;19488;-47
2022/06/24 00:27:01;;;;;;;;;37.00;36.50;;;;;23.86;53.25;100914.92;110249;1265;22409;-52
2022/06/24 00:29:28;;;;;;;;;34.00;33.50;;;;;23.85;53.16;100920.30;110213;1264;18519;-48
2022/06/24 00:31:55;;;;;;;;;40.00;35.00;;;;;23.85;53.25;100917.65;110277;1265;19049;-48
2022/06/24 00:34:23;;;;;;;;;38.67;35.00;;;;;23.87;53.24;100920.45;110170;1264;22225;-49
2022/06/24 00:36:50;;;;;;;;;35.67;32.00;;;;;23.85;53.15;100917.27;110269;1265;18394;-48
2022/06/24 00:39:17;;;;;;;;;31.67;30.67;;;;;23.80;53.38;100920.20;110270;1265;18809;-48
2022/06/24 00:41:45;;;;;;;;;33.00;31.00;;;;;23.82;53.31;100918.04;110310;1264;18924;-47
2022/06/24 00:44:12;;;;;;;;;37.00;35.33;;;;;23.81;53.19;100915.70;110285;1265;18368;-48
2022/06/24 00:46:39;;;;;;;;;39.00;34.00;;;;;23.81;53.28;100919.54;110278;1264;19128;-48
2022/06/24 00:49:06;;;;;;;;;37.67;35.33;;;;;23.81;53.04;100916.29;110255;1264;18928;-48
2022/06/24 00:51:34;;;;;;;;;34.33;34.33;;;;;23.78;53.16;100915.04;110289;1264;19234;-48
2022/06/24 00:54:01;;;;;;;;;34.00;31.00;;;;;23.74;53.22;100918.28;110184;1264;20174;-47
2022/06/24 00:56:28;;;;;;;;;33.00;33.00;;;;;23.73;53.16;100917.42;110254;1264;20497;-49
2022/06/24 00:58:56;;;;;;;;;34.00;33.33;;;;;23.72;53.06;100918.92;110104;1265;18404;-48
2022/06/24 01:01:23;;;;;;;;;31.00;30.00;;;;;23.67;53.27;100920.93;110247;1264;18861;-48
2022/06/24 01:03:50;;;;;;;;;35.00;33.50;;;;;23.70;53.15;100918.90;110265;1264;18834;-48
2022/06/24 01:06:17;;;;;;;;;35.00;32.67;;;;;23.69;53.02;100918.42;110241;1265;18247;-48
2022/06/24 01:08:45;;;;;;;;;31.00;30.33;;;;;23.71;53.04;100921.34;110305;1265;21462;-53
2022/06/24 01:11:12;;;;;;;;;35.67;32.00;;;;;23.68;52.97;100920.86;110256;1264;19013;-49
2022/06/24 01:13:40;;;;;;;;;35.33;33.67;;;;;23.69;52.89;100922.55;110166;1264;18176;-49
2022/06/24 01:16:07;;;;;;;;;34.67;34.33;;;;;23.65;53.06;100925.88;110305;1264;19208;-52
2022/06/24 01:18:34;;;;;;;;;36.00;34.67;;;;;23.62;53.05;100924.15;110250;1264;18689;-48
2022/06/24 01:21:01;;;;;;;;;31.50;31.00;;;;;23.61;53.02;100923.54;110303;1264;18569;-48
2022/06/24 01:23:29;;;;;;;;;34.50;33.50;;;;;23.62;53.01;100923.22;110257;1265;22078;-47
2022/06/24 01:25:56;;;;;;;;;34.00;32.67;;;;;23.65;52.89;100921.79;110284;1265;18702;-48
2022/06/24 01:28:23;;;;;;;;;32.33;31.67;;;;;23.60;53.00;100921.23;110259;1265;18598;-50
2022/06/24 01:30:50;;;;;;;;;39.67;36.33;;;;;23.58;53.03;100926.71;110296;1264;18840;-48
2022/06/24 01:33:18;;;;;;;;;30.67;30.67;;;;;23.59;53.07;100921.38;110261;1265;19221;-50
2022/06/24 01:35:45;;;;;;;;;36.67;33.33;;;;;23.59;52.99;100922.52;110283;1264;21544;-48
2022/06/24 01:38:12;;;;;;;;;41.67;38.00;;;;;23.64;52.99;100928.59;110290;1265;18582;-50
2022/06/24 01:40:39;;;;;;;;;42.33;39.33;;;;;23.60;52.95;100923.05;110278;1264;18683;-49
2022/06/24 01:43:06;;;;;;;;;42.00;38.00;;;;;23.58;52.96;100922.55;110303;1265;18545;-48
2022/06/24 01:45:34;;;;;;;;;36.67;35.67;;;;;23.58;52.91;100918.80;110164;1265;20396;-49
2022/06/24 01:48:01;;;;;;;;;37.33;35.00;;;;;23.54;52.87;100921.66;110185;1265;18914;-50
2022/06/24 01:50:28;;;;;;;;;39.33;38.00;;;;;23.52;52.97;100922.64;110259;1264;22107;-48
2022/06/24 01:52:55;;;;;;;;;39.00;37.67;;;;;23.50;53.00;100925.27;110133;1267;19034;-48
2022/06/24 01:55:23;;;;;;;;;39.00;37.33;;;;;23.47;53.13;100923.38;110177;1265;22189;-49
2022/06/24 01:57:50;;;;;;;;;35.00;35.00;;;;;23.50;53.10;100922.73;110158;1265;19914;-52
2022/06/24 02:00:17;;;;;;;;;35.00;34.50;;;;;23.47;53.00;100919.73;110292;1264;18978;-51
2022/06/24 02:02:44;;;;;;;;;35.67;34.00;;;;;23.50;52.89;100922.90;110290;1264;19530;-49
2022/06/24 02:05:12;;;;;;;;;34.33;32.67;;;;;23.51;52.83;100922.71;110218;1264;18384;-54
2022/06/24 02:07:39;;;;;;;;;36.50;34.00;;;;;23.49;52.92;100923.33;110247;1264;18805;-49
2022/06/24 02:15:36;;;;;;;;;32.00;29.67;;;;;23.46;52.92;100930.48;110187;1265;19078;-49
2022/06/24 02:18:03;;;;;;;;;34.33;32.67;;;;;23.46;52.97;100931.87;110289;1265;18743;-48
2022/06/24 02:20:30;;;;;;;;;33.67;32.33;;;;;23.48;52.83;100927.65;110265;1265;18318;-48
2022/06/24 02:22:57;;;;;;;;;33.00;32.00;;;;;23.45;52.91;100928.53;110266;1265;18841;-48
2022/06/24 02:25:25;;;;;;;;;35.00;33.33;;;;;23.43;52.85;100928.42;110279;1265;18795;-48
2022/06/24 02:27:52;;;;;;;;;35.67;34.33;;;;;23.42;53.00;100929.59;110253;1264;18732;-48
2022/06/24 02:30:19;;;;;;;;;34.00;34.00;;;;;23.39;52.92;100929.85;110274;1264;18659;-48
2022/06/24 02:32:46;;;;;;;;;30.67;29.00;;;;;23.36;52.85;100931.70;110319;1264;18990;-49
2022/06/24 02:35:14;;;;;;;;;31.67;30.67;;;;;23.36;52.87;100926.50;110268;1264;18260;-49
2022/06/24 02:37:41;;;;;;;;;31.67;30.33;;;;;23.41;52.85;100926.02;110249;1264;18851;-49
2022/06/24 02:42:54;;;;;;;;;36.67;32.33;;;;;23.40;52.79;100929.90;110296;1264;18516;-48
2022/06/24 02:45:21;;;;;;;;;35.00;32.67;;;;;23.35;52.85;100931.71;110288;1264;18999;-48
2022/06/24 02:47:48;;;;;;;;;32.00;32.00;;;;;23.33;52.88;100930.26;110321;1264;20834;-47
2022/06/24 02:50:15;;;;;;;;;29.00;28.00;;;;;23.36;52.83;100931.11;110244;1265;22098;-50
2022/06/24 02:52:43;;;;;;;;;29.00;28.33;;;;;23.40;52.75;100930.48;110247;1264;18673;-52
2022/06/24 02:55:10;;;;;;;;;29.00;29.00;;;;;23.37;52.72;100935.61;110247;1264;22283;-44
2022/06/24 02:57:37;;;;;;;;;32.00;27.00;;;;;23.35;52.85;100934.00;110280;1264;18808;-49
2022/06/24 03:00:04;;;;;;;;;29.50;29.00;;;;;23.33;52.86;100934.46;110309;1264;18834;-52
2022/06/24 03:02:31;;;;;;;;;29.67;29.33;;;;;23.41;52.75;100934.57;110200;1264;18870;-48
2022/06/24 03:04:59;;;;;;;;;32.00;29.67;;;;;23.41;52.59;100930.33;110306;1264;18341;-50
2022/06/24 03:07:26;;;;;;;;;30.33;29.33;;;;;23.43;52.61;100927.92;110275;1265;18769;-50
2022/06/24 03:09:53;;;;;;;;;33.00;31.00;;;;;23.41;52.63;100930.70;110167;1265;19195;-54
2022/06/24 03:12:20;;;;;;;;;35.67;30.00;;;;;23.36;52.75;100933.41;110243;1264;18358;-49
2022/06/24 03:14:48;;;;;;;;;30.67;29.33;;;;;23.34;52.68;100931.45;110310;1265;18693;-48
2022/06/24 03:17:15;;;;;;;;;33.50;32.00;;;;;23.32;52.76;100931.13;110242;1265;19210;-52
2022/06/24 03:19:42;;;;;;;;;33.33;32.33;;;;;23.31;52.83;100926.18;110266;1265;18233;-48
2022/06/24 03:22:09;;;;;;;;;33.33;31.33;;;;;23.30;52.76;100923.66;110308;1265;18885;-48
2022/06/24 03:24:37;;;;;;;;;29.67;29.67;;;;;23.28;52.75;100922.73;110255;1264;19013;-48
2022/06/24 03:27:04;;;;;;;;;32.33;30.33;;;;;23.29;52.66;100921.66;110308;1264;20377;-50
2022/06/24 03:29:31;;;;;;;;;32.33;29.67;;;;;23.29;52.84;100924.42;110273;1265;18788;-48
2022/06/24 03:31:58;;;;;;;;;33.67;31.33;;;;;23.28;52.76;100925.78;110271;1264;18822;-49
2022/06/24 03:34:25;;;;;;;;;32.00;30.00;;;;;23.27;52.74;100928.80;110243;1264;18289;-49
2022/06/24 03:36:53;;;;;;;;;29.33;28.33;;;;;23.23;52.86;100929.83;110260;1265;22216;-48
2022/06/24 03:39:20;;;;;;;;;36.00;33.33;;;;;23.24;52.86;100933.59;110261;1265;24309;-47
2022/06/24 03:41:47;;;;;;;;;29.33;28.67;;;;;23.22;52.81;100934.19;110322;1264;18681;-47
2022/06/24 03:44:14;;;;;;;;;29.33;29.00;;;;;23.20;52.85;100938.12;110234;1263;18760;-47
2022/06/24 03:46:42;;;;;;;;;29.67;28.67;;;;;23.21;52.74;100936.91;110279;1264;18741;-47
2022/06/24 03:49:09;;;;;;;;;29.00;28.67;;;;;23.16;52.88;100939.45;110242;1264;21030;-48
2022/06/24 03:51:36;;;;;;;;;35.67;31.67;;;;;23.17;52.91;100937.08;110100;1265;19352;-50
2022/06/24 03:54:04;;;;;;;;;29.00;28.33;;;;;23.22;52.83;100936.96;110274;1264;18832;-52
2022/06/24 03:56:31;;;;;;;;;30.00;29.00;;;;;23.22;52.80;100938.60;110247;1264;18317;-49
2022/06/24 03:58:58;;;;;;;;;29.00;28.00;;;;;23.21;52.74;100936.70;110208;1264;18986;-49
2022/06/24 04:01:26;;;;;;;;;32.00;29.00;;;;;23.22;52.69;100936.80;110229;1264;18913;-49
2022/06/24 04:03:53;;;;;;;;;31.00;29.00;;;;;23.20;52.60;100938.63;110206;1264;18886;-49
2022/06/24 04:06:21;;;;;;;;;32.00;30.00;;;;;23.16;52.70;100937.98;110242;1264;18675;-48
2022/06/24 04:08:48;;;;;;;;;29.33;28.33;;;;;23.17;52.70;100939.38;110310;1265;19027;-47
2022/06/24 04:11:15;;;;;;;;;28.33;27.33;;;;;23.19;52.46;100936.71;110151;1264;20280;-50
2022/06/24 04:13:42;;;;;;;;;29.67;29.67;;;;;23.23;52.48;100939.92;110253;1265;23328;-51
2022/06/24 04:16:09;;;;;;;;;30.33;29.00;;;;;23.26;52.33;100939.79;110279;1264;18912;-51
2022/06/24 04:18:37;;;;;;;;;33.33;30.33;;;;;23.31;52.16;100940.77;110248;1264;18376;-49
2022/06/24 04:21:04;;;;;;;;;28.50;26.50;;;;;23.28;52.28;100941.30;110202;1264;20269;-53
2022/06/24 04:23:31;;;;;;;;;28.67;27.33;;;;;23.29;52.04;100943.23;110279;1264;18894;-49
2022/06/24 04:25:58;;;;;;;;;29.00;28.33;;;;;23.26;52.22;100948.55;110286;1264;18217;-49
2022/06/24 04:28:26;;;;;;;;;27.00;25.50;;;;;23.25;52.19;100949.52;110291;1264;18878;-50
2022/06/24 04:30:53;;;;;;;;;28.33;26.67;;;;;23.28;52.05;100949.55;110291;1264;19169;-48
2022/06/24 04:33:20;;;;;;;;;28.67;27.67;;;;;23.28;51.97;100946.73;110228;1265;18525;-52
2022/06/24 04:35:48;;;;;;;;;30.00;29.00;;;;;23.30;51.93;100945.98;110309;1264;18889;-52
2022/06/24 04:38:15;;;;;;;;;29.33;27.67;;;;;23.34;51.81;100948.23;110303;1264;23128;-48
2022/06/24 04:40:42;;;;;;;;;24.67;24.67;;;;;23.34;51.77;100950.77;110261;1265;18380;-47
2022/06/24 04:43:09;;;;;;;;;28.67;28.00;;;;;23.33;51.81;100945.58;110263;1264;21522;-49
2022/06/24 04:45:37;;;;;;;;;28.00;25.00;;;;;23.34;51.87;100942.95;110256;1264;21944;-48
2022/06/24 04:48:04;;;;;;;;;29.50;27.00;;;;;23.39;51.82;100941.33;110318;1264;18331;-48
2022/06/24 04:50:31;;;;;;;;;28.00;28.00;;;;;23.44;51.62;100941.40;110263;1264;24557;-48
2022/06/24 04:52:58;;;;;;;;;25.00;25.00;;;;;23.48;51.38;100934.63;110254;1264;18757;-48
2022/06/24 04:55:26;;;;;;;;;25.00;24.33;;;;;23.49;51.52;100933.59;110297;1264;19390;-49
2022/06/24 04:57:53;;;;;;;;;26.67;26.67;;;;;23.50;51.42;100940.77;110290;1264;19017;-49
2022/06/24 05:00:20;;;;;;;;;25.00;24.00;;;;;23.53;51.39;100940.41;110273;1264;19047;-50
2022/06/24 05:02:48;;;;;;;;;26.00;24.33;;;;;23.51;51.19;100938.96;110308;1265;18281;-49
2022/06/24 05:05:15;;;;;;;;;24.00;23.67;;;;;23.50;51.20;100937.52;110303;1264;18771;-50
2022/06/24 05:07:42;;;;;;;;;29.00;25.00;;;;;23.54;51.24;100937.53;110225;1265;19038;-49
2022/06/24 05:10:09;;;;;;;;;25.00;24.50;;;;;23.62;51.02;100933.48;110284;1265;18506;-47
2022/06/24 05:12:37;;;;;;;;;25.00;24.50;;;;;23.62;50.90;100935.63;110212;1264;19038;-48
2022/06/24 05:15:04;;;;;;;;;28.67;27.00;;;;;23.59;51.00;100935.63;110196;1264;18769;-49
2022/06/24 05:17:31;;;;;;;;;29.00;27.00;;;;;23.45;51.48;100936.57;110097;1264;20656;-49
2022/06/24 05:19:59;;;;;;;;;26.33;24.33;;;;;23.36;51.63;100938.47;109887;1264;18673;-52
2022/06/24 05:22:26;;;;;;;;;28.00;24.67;;;;;23.35;51.87;100937.55;110160;1264;18698;-48
2022/06/24 05:24:53;;;;;;;;;24.00;23.67;;;;;23.45;51.82;100940.02;110258;1264;18327;-48
2022/06/24 05:27:20;;;;;;;;;24.33;23.00;;;;;23.67;51.65;100939.23;110218;1264;18906;-49
2022/06/24 05:29:48;;;;;;;;;28.67;24.33;;;;;23.67;51.72;100943.20;110237;1264;18874;-48
2022/06/24 05:32:15;;;;;;;;;26.00;24.00;;;;;23.59;51.76;100941.89;110148;1264;18715;-48
2022/06/24 05:34:42;;;;;;;;;27.33;25.00;;;;;23.59;51.58;100942.90;110182;1264;19237;-48
2022/06/24 05:37:10;;;;;;;;;24.33;23.00;;;;;23.68;51.44;100944.17;110218;1264;18770;-49
2022/06/24 05:39:37;;;;;;;;;23.33;23.00;;;;;23.69;51.10;100940.74;110253;1264;18371;-49
2022/06/24 05:42:04;;;;;;;;;26.33;26.33;;;;;23.61;51.13;100943.02;110243;1264;18912;-47
2022/06/24 05:44:32;;;;;;;;;29.00;27.00;;;;;23.58;51.23;100942.27;110264;1264;20132;-50
2022/06/24 05:46:59;;;;;;;;;24.00;22.67;;;;;23.68;50.81;100945.08;110240;1264;18382;-47
2022/06/24 05:49:26;;;;;;;;;24.67;22.67;;;;;23.66;50.72;100947.11;110207;1264;18696;-48
2022/06/24 05:51:53;;;;;;;;;21.67;21.67;;;;;23.62;50.77;100942.71;110201;1264;18856;-50
2022/06/24 05:57:05;;;;;;;;;21.00;20.33;;;;;23.60;50.67;100936.22;110287;1265;19062;-48
2022/06/24 05:59:37;;;;;;;;;21.00;20.00;;;;;23.71;50.60;100933.15;110284;1265;19640;-49
2022/06/24 06:02:04;;;;;;;;;24.33;23.33;;;;;23.77;50.34;100935.09;110203;1265;18308;-51
2022/06/24 06:04:31;;;;;;;;;20.67;20.33;;;;;23.59;50.38;100936.52;110216;1264;18888;-52
2022/06/24 06:06:59;;;;;;;;;24.00;21.33;;;;;23.65;50.32;100942.86;110267;1264;18863;-55
2022/06/24 06:09:26;;;;;;;;;24.67;23.00;;;;;23.44;50.79;100950.56;110138;1265;21774;-52
2022/06/24 06:11:53;;;;;;;;;23.33;22.67;;;;;23.47;50.79;100943.45;110150;1264;21574;-52
2022/06/24 06:14:20;;;;;;;;;20.33;19.00;;;;;23.66;50.62;100940.81;110171;1264;18753;-53
2022/06/24 06:16:48;;;;;;;;;20.33;19.33;;;;;23.67;50.36;100940.25;110079;1264;18268;-56
2022/06/24 06:19:15;;;;;;;;;21.67;21.00;;;;;23.64;50.62;100938.60;109984;1264;18724;-52
2022/06/24 06:21:44;;;;;;;;;20.33;19.33;;;;;23.89;50.17;100935.04;110206;1264;18921;-53
2022/06/24 06:24:11;;;;;;;;;19.00;19.00;;;;;24.01;49.95;100935.34;110271;1264;18653;-54
2022/06/24 06:26:39;;;;;;;;;23.00;21.00;;;;;24.06;49.67;100936.70;110208;1264;18835;-53
2022/06/24 06:29:06;;;;;;;;;21.00;20.33;;;;;24.05;49.59;100936.91;110252;1264;19118;-54
2022/06/24 06:31:34;;;;;;;;;24.67;21.67;;;;;24.03;49.79;100935.54;110274;1264;18388;-52
2022/06/24 06:34:01;;;;;;;;;19.67;18.67;;;;;24.10;49.29;100934.55;110258;1264;18914;-54
2022/06/24 06:36:28;;;;;;;;;23.33;21.00;;;;;24.10;49.17;100934.48;110257;1265;18853;-57
2022/06/24 06:38:56;;;;;;;;;19.67;18.33;;;;;24.24;48.88;100932.00;110301;1265;20694;-52
2022/06/24 06:41:23;;;;;;;;;22.00;22.00;;;;;24.23;48.79;100932.34;110228;1264;18945;-55
2022/06/24 06:43:50;;;;;;;;;20.00;20.00;;;;;24.32;48.64;100932.05;110256;1263;19046;-51
2022/06/24 06:46:18;;;;;;;;;20.50;19.00;;;;;24.41;48.58;100930.05;110199;1264;18410;-55
2022/06/24 06:48:45;;;;;;;;;17.00;17.00;;;;;24.44;48.57;100933.70;110153;1264;18812;-52
2022/06/24 06:51:12;;;;;;;;;20.00;19.67;;;;;24.67;48.25;100926.16;110210;1264;18718;-58
2022/06/24 06:53:39;;;;;;;;;17.00;16.00;;;;;24.75;47.80;100932.58;110077;1264;18348;-52
2022/06/24 06:56:06;;;;;;;;;20.00;19.00;;;;;24.73;47.78;100928.27;110154;1265;20872;-53
2022/06/24 06:58:34;;;;;;;;;16.33;16.00;;;;;24.83;46.87;100927.54;110075;1265;18893;-52
2022/06/24 07:01:01;;;;;;;;;18.00;17.00;;;;;24.86;46.52;100922.89;110262;1265;18284;-51
2022/06/24 07:03:28;;;;;;;;;15.67;15.00;;;;;24.87;46.08;100922.06;109534;1264;947243;-53
2022/06/24 07:05:55;;;;;;;;;15.50;15.50;;;;;24.94;45.87;100924.55;110230;1264;18893;-51
2022/06/24 07:08:24;;;;;;;;;15.00;15.00;;;;;24.92;45.76;100918.48;110218;1264;18230;-52
2022/06/24 07:10:51;;;;;;;;;15.67;15.00;;;;;24.87;45.28;100916.23;110198;1264;18698;-55
2022/06/24 07:13:19;;;;;;;;;15.33;15.00;;;;;24.93;45.00;100915.38;110185;1264;21544;-53
2022/06/24 07:15:46;;;;;;;;;14.33;14.33;;;;;25.05;44.80;100916.62;110071;1264;18206;-54
2022/06/24 07:18:14;;;;;;;;;12.67;12.67;;;;;25.00;44.10;100918.64;110198;1264;18902;-57
2022/06/24 07:20:41;;;;;;;;;18.00;16.00;;;;;25.00;43.84;100916.07;110291;1264;22100;-52
2022/06/24 07:23:08;;;;;;;;;15.00;15.00;;;;;24.93;43.47;100906.99;110214;1264;18238;-51
2022/06/24 07:25:36;;;;;;;;;13.00;13.00;;;;;24.93;43.34;100912.52;110203;1265;19233;-51
2022/06/24 07:28:04;;;;;;;;;12.33;12.00;;;;;24.88;42.76;100911.84;110237;1264;19235;-56
2022/06/24 07:30:31;;;;;;;;;12.00;11.67;;;;;24.92;42.37;100906.47;110200;1264;18190;-55
2022/06/24 07:32:58;;;;;;;;;15.00;13.67;;;;;25.03;42.15;100908.04;110262;1264;22219;-51
2022/06/24 07:35:26;;;;;;;;;12.50;11.50;;;;;25.07;42.02;100904.83;110233;1264;19164;-56
2022/06/24 07:37:53;;;;;;;;;13.00;13.00;;;;;25.12;42.26;100903.09;110126;1265;18315;-54
2022/06/24 07:40:20;;;;;;;;;15.33;14.33;;;;;25.15;41.99;100904.67;110217;1264;19474;-52
2022/06/24 07:42:48;;;;;;;;;15.00;13.00;;;;;25.12;42.05;100905.95;110238;1264;20988;-56
2022/06/24 07:45:15;;;;;;;;;18.00;17.00;;;;;25.11;41.85;100914.05;110269;1264;21274;-51
2022/06/24 07:47:43;;;;;;;;;16.67;16.00;;;;;25.08;41.74;100903.98;110268;1264;18754;-53
2022/06/24 07:50:10;;;;;;;;;15.67;15.67;;;;;25.14;41.54;100897.88;110249;1264;19374;-57
2022/06/24 07:52:37;;;;;;;;;16.33;16.00;;;;;25.19;41.46;100896.41;110230;1264;18474;-53
2022/06/24 07:57:49;;;;;;;;;13.67;13.67;;;;;25.22;41.43;100893.66;110114;1264;19050;-51
2022/06/24 08:00:16;;;;;;;;;16.67;15.33;;;;;25.17;41.28;100894.48;110138;1265;19113;-54
2022/06/24 08:02:44;;;;;;;;;15.00;15.00;;;;;25.20;41.61;100888.70;110237;1265;18738;-55
2022/06/24 08:05:11;;;;;;;;;14.33;14.00;;;;;25.28;41.78;100892.73;110212;1264;22253;-53
2022/06/24 08:07:38;;;;;;;;;14.00;13.50;;;;;25.39;42.04;100886.14;110185;1265;20865;-54
2022/06/24 08:10:05;;;;;;;;;15.33;13.00;;;;;25.49;41.82;100884.45;110071;1266;21160;-56
2022/06/24 08:12:33;;;;;;;;;13.00;13.00;;;;;25.41;41.61;100885.22;110125;1264;21744;-53
2022/06/24 08:15:00;;;;;;;;;16.00;14.00;;;;;25.39;41.27;100882.05;110214;1264;18725;-52
2022/06/24 08:17:27;;;;;;;;;14.00;12.50;;;;;25.29;41.32;100878.11;110129;1264;20828;-52
2022/06/24 08:19:54;;;;;;;;;14.50;14.00;;;;;25.31;41.36;100879.13;110237;1264;21664;-54
2022/06/24 08:22:22;;;;;;;;;14.67;13.00;;;;;25.37;41.44;100874.39;110215;1264;18246;-52
2022/06/24 08:24:49;;;;;;;;;12.00;12.00;;;;;25.41;41.35;100875.71;110289;1265;18829;-53
2022/06/24 08:27:16;;;;;;;;;13.00;12.33;;;;;25.35;40.81;100863.66;110278;1264;18816;-52
2022/06/24 08:29:44;;;;;;;;;12.33;12.00;;;;;25.37;40.77;100866.00;110213;1264;18265;-52
2022/06/24 08:32:11;;;;;;;;;15.00;13.00;;;;;25.35;40.96;100864.89;110224;1264;18815;-57
2022/06/24 08:34:38;;;;;;;;;14.67;14.00;;;;;25.34;41.04;100863.83;110190;1264;23755;-55
2022/06/24 08:37:06;;;;;;;;;14.00;14.00;;;;;25.37;41.13;100857.68;110228;1264;18706;-55
2022/06/24 08:39:33;;;;;;;;;14.00;14.00;;;;;25.43;41.07;100853.23;110248;1264;19478;-55
2022/06/24 08:42:00;;;;;;;;;13.33;13.33;;;;;25.41;41.09;100853.94;110211;1264;19563;-52
2022/06/24 08:44:28;;;;;;;;;15.33;14.00;;;;;25.28;41.10;100854.93;110213;1264;18285;-52
2022/06/24 08:46:55;;;;;;;;;14.00;14.00;;;;;25.25;40.98;100850.11;110184;1264;18981;-52
2022/06/24 08:49:22;;;;;;;;;12.50;12.50;;;;;25.30;40.97;100849.96;110196;1265;21975;-55
2022/06/24 08:51:50;;;;;;;;;13.33;12.33;;;;;25.32;40.98;100849.26;110197;1265;18339;-54
2022/06/24 08:54:17;;;;;;;;;15.00;15.00;;;;;25.28;40.81;100843.80;110230;1265;18724;-51
2022/06/24 08:56:44;;;;;;;;;16.33;14.33;;;;;25.30;40.89;100846.17;110265;1264;18708;-51
2022/06/24 08:59:11;;;;;;;;;12.00;12.00;;;;;25.39;40.59;100846.67;110096;1264;18612;-54
2022/06/24 09:01:39;;;;;;;;;13.00;13.00;;;;;25.39;40.23;100845.74;110262;1264;18626;-53
2022/06/24 09:04:06;;;;;;;;;14.00;14.00;;;;;25.36;40.07;100841.71;110258;1264;19039;-52
2022/06/24 09:06:33;;;;;;;;;12.00;12.00;;;;;25.39;39.25;100837.38;110235;1264;18316;-53
2022/06/24 09:09:00;;;;;;;;;11.33;11.33;;;;;25.37;37.92;100821.70;110287;1264;19198;-53
2022/06/24 09:11:28;;;;;;;;;11.67;11.00;;;;;25.36;37.40;100822.42;110208;1264;18767;-53
2022/06/24 09:13:55;;;;;;;;;15.00;14.00;;;;;25.42;37.72;100823.05;110246;1264;18369;-55
2022/06/24 09:16:22;;;;;;;;;19.00;17.00;;;;;25.48;38.17;100817.23;110236;1264;18774;-49
2022/06/24 09:18:50;;;;;;;;;16.00;16.00;;;;;25.61;38.61;100817.65;110208;1264;21892;-55
2022/06/24 09:21:17;;;;;;;;;16.33;15.67;;;;;25.60;38.94;100819.77;110253;1264;18297;-52
2022/06/24 09:23:44;;;;;;;;;20.50;17.00;;;;;25.53;39.32;100819.98;110245;1264;18692;-54
2022/06/24 09:26:11;;;;;;;;;16.00;14.00;;;;;25.44;39.67;100817.94;110158;1265;19173;-56
2022/06/24 09:28:39;;;;;;;;;16.00;13.67;;;;;25.48;39.46;100814.36;110183;1264;21113;-55
2022/06/24 09:31:06;;;;;;;;;16.00;14.00;;;;;25.60;39.35;100816.39;110218;1264;19003;-49
2022/06/24 09:33:33;;;;;;;;;16.00;14.00;;;;;25.65;39.12;100813.10;110220;1264;22163;-54
2022/06/24 09:36:00;;;;;;;;;14.67;13.00;;;;;25.67;38.83;100811.75;110260;1264;18265;-57
2022/06/24 09:38:28;;;;;;;;;13.67;13.00;;;;;25.70;38.68;100813.95;110225;1264;20249;-53
2022/06/24 09:40:56;;;;;;;;;13.00;13.00;;;;;25.72;38.66;100813.95;110251;1264;18896;-51
2022/06/24 09:43:23;;;;;;;;;11.67;11.67;;;;;25.71;38.42;100814.13;110075;1265;18302;-53
2022/06/24 09:45:50;;;;;;;;;15.00;12.33;;;;;25.75;38.56;100808.46;110200;1264;18867;-53
2022/06/24 09:48:17;;;;;;;;;13.00;13.00;;;;;25.82;38.40;100813.71;110093;1265;18729;-54
2022/06/24 09:50:45;;;;;;;;;10.33;10.33;;;;;25.75;38.08;100805.52;110203;1264;20459;-55
2022/06/24 09:53:12;;;;;;;;;16.67;15.67;;;;;25.71;37.84;100802.30;110200;1264;19389;-54
2022/06/24 09:55:39;;;;;;;;;14.00;14.00;;;;;25.66;37.79;100797.46;110206;1263;18834;-56
2022/06/24 09:58:07;;;;;;;;;13.67;13.67;;;;;25.77;38.01;100793.38;110206;1264;18280;-52
2022/06/24 10:00:43;;;;;;;;;12.00;12.00;;;;;25.87;38.17;100798.59;110200;1264;18755;-53
2022/06/24 10:03:12;;;;;;;;;13.00;12.67;;;;;25.86;38.38;100790.54;110186;1264;18866;-58
2022/06/24 10:05:39;;;;;;;;;13.00;13.00;;;;;25.91;38.58;100787.70;110161;1264;18256;-53
2022/06/24 10:08:07;;;;;;;;;12.00;11.00;;;;;25.99;37.90;100777.81;110179;1264;19597;-55
2022/06/24 10:10:35;;;;;;;;;11.33;11.33;;;;;25.98;37.49;100785.29;110177;1264;22045;-55
2022/06/24 10:13:02;;;;;;;;;13.00;12.00;;;;;25.93;37.40;100772.58;110149;1264;18976;-51
2022/06/24 10:15:29;;;;;;;;;13.33;13.00;;;;;26.00;37.29;100768.77;110139;1265;22050;-53
2022/06/24 10:17:56;;;;;;;;;11.33;11.33;;;;;26.09;37.23;100775.08;110278;1265;18791;-52
2022/06/24 10:20:23;;;;;;;;;12.00;12.00;;;;;26.06;37.31;100772.23;110242;1264;18202;-51
2022/06/24 10:22:51;;;;;;;;;12.00;11.67;;;;;26.10;37.15;100774.52;110101;1264;19967;-56
2022/06/24 10:25:18;;;;;;;;;11.00;11.00;;;;;26.13;37.40;100772.92;110156;1265;18799;-55
2022/06/24 10:27:46;;;;;;;;;12.33;12.33;;;;;26.10;37.68;100765.94;110236;1264;21963;-54
2022/06/24 10:30:13;;;;;;;;;12.00;11.00;;;;;26.06;37.70;100773.64;110297;1264;18675;-51
2022/06/24 10:32:40;;;;;;;;;9.00;9.00;;;;;26.05;37.75;100768.52;110239;1264;18724;-52
2022/06/24 10:35:08;;;;;;;;;11.00;11.00;;;;;26.08;37.93;100768.02;110237;1265;18141;-53
2022/06/24 10:37:36;;;;;;;;;11.33;11.00;;;;;26.06;37.73;100764.52;110249;1265;20118;-54
2022/06/24 10:40:03;;;;;;;;;12.67;12.00;;;;;26.12;37.72;100757.88;110221;1264;19313;-52
2022/06/24 10:42:33;;;;;;;;;11.33;11.00;;;;;26.25;37.71;100752.15;110059;1264;19447;-53
2022/06/24 10:45:00;;;;;;;;;11.67;11.33;;;;;26.29;37.56;100753.76;110210;1264;18702;-54
2022/06/24 10:47:28;;;;;;;;;11.67;11.00;;;;;26.17;37.59;100751.83;110200;1264;18731;-54
2022/06/24 10:49:55;;;;;;;;;9.67;9.67;;;;;26.16;37.47;100753.98;110142;1265;18326;-54
2022/06/24 10:52:22;;;;;;;;;11.67;11.67;;;;;26.20;37.55;100749.45;110168;1264;20192;-53
2022/06/24 10:54:50;;;;;;;;;11.33;11.00;;;;;26.18;37.78;100752.29;110141;1264;18295;-54
2022/06/24 10:57:17;;;;;;;;;11.00;11.00;;;;;26.18;37.81;100752.25;110224;1265;19034;-56
2022/06/24 10:59:44;;;;;;;;;11.00;11.00;;;;;26.19;37.60;100755.96;110180;1264;21927;-51
2022/06/24 11:02:12;;;;;;;;;12.00;10.00;;;;;26.24;37.90;100746.41;110241;1265;19079;-52
2022/06/24 11:04:39;;;;;;;;;9.50;9.50;;;;;26.28;37.96;100750.60;110133;1265;22604;-53
2022/06/24 11:07:06;;;;;;;;;15.33;12.00;;;;;26.26;37.86;100744.17;110202;1264;19000;-55
2022/06/24 11:09:34;;;;;;;;;10.00;10.00;;;;;26.20;37.77;100739.82;110165;1264;22011;-54
2022/06/24 11:12:02;;;;;;;;;12.67;12.67;;;;;26.31;37.87;100743.45;110262;1264;18244;-55
2022/06/24 11:14:29;;;;;;;;;9.67;9.00;;;;;26.32;37.70;100740.56;110274;1264;18752;-51